createdAt,value
2023-01-13T00:00:23.798Z,0.52
2023-01-13T00:02:50.717Z,0.40
2023-01-13T00:05:17.656Z,0.43
2023-01-13T00:07:44.574Z,0.40
2023-01-13T00:10:11.992Z,0.65
2023-01-13T00:12:43.487Z,0.60
2023-01-13T00:15:11.666Z,0.55
2023-01-13T00:17:39.051Z,0.60
2023-01-13T00:20:07.140Z,0.50
2023-01-13T00:22:35.228Z,0.55
2023-01-13T00:25:04.369Z,0.93
2023-01-13T00:27:31.640Z,0.80
2023-01-13T00:29:59.172Z,0.73
2023-01-13T00:32:26.134Z,1.00
2023-01-13T00:34:53.411Z,0.90
2023-01-13T00:37:20.298Z,0.68
2023-01-13T00:39:47.311Z,0.70
2023-01-13T00:42:32.601Z,0.82
2023-01-13T00:44:59.471Z,0.73
2023-01-13T00:47:26.419Z,0.90
2023-01-13T00:49:53.332Z,0.80
2023-01-13T00:52:20.193Z,0.90
2023-01-13T00:54:47.088Z,0.68
2023-01-13T00:57:15.391Z,0.93
2023-01-13T00:59:42.371Z,1.08
2023-01-13T01:02:09.371Z,0.90
2023-01-13T01:04:36.366Z,1.42
2023-01-13T01:07:03.216Z,0.88
2023-01-13T01:09:33.448Z,0.70
2023-01-13T01:12:01.307Z,0.93
2023-01-13T01:14:28.461Z,0.90
2023-01-13T01:16:55.410Z,0.70
2023-01-13T01:19:22.391Z,1.15
2023-01-13T01:21:49.277Z,0.60
2023-01-13T01:24:16.740Z,0.88
2023-01-13T01:26:43.727Z,0.95
2023-01-13T01:29:15.251Z,0.82
2023-01-13T01:31:43.000Z,1.13
2023-01-13T01:34:09.880Z,1.23
2023-01-13T01:36:36.796Z,1.08
2023-01-13T01:39:04.857Z,1.00
2023-01-13T01:41:34.589Z,0.90
2023-01-13T01:44:42.129Z,0.98
2023-01-13T01:47:16.857Z,0.70
2023-01-13T01:49:45.940Z,0.80
2023-01-13T01:52:19.791Z,0.85
2023-01-13T01:55:01.559Z,0.70
2023-01-13T01:57:45.486Z,1.05
2023-01-13T02:00:13.417Z,0.90
2023-01-13T02:02:46.704Z,0.95
2023-01-13T02:05:14.435Z,1.20
2023-01-13T02:07:44.542Z,0.82
2023-01-13T02:10:16.722Z,1.20
2023-01-13T02:12:45.689Z,1.15
2023-01-13T02:15:21.531Z,1.08
2023-01-13T02:18:00.420Z,1.50
2023-01-13T02:21:28.409Z,1.25
2023-01-13T02:24:53.103Z,1.00
2023-01-13T02:28:06.297Z,0.98
2023-01-13T02:31:10.338Z,1.13
2023-01-13T02:33:44.408Z,0.98
2023-01-13T02:36:30.009Z,1.23
2023-01-13T02:39:16.569Z,2.15
2023-01-13T02:42:16.498Z,1.08
2023-01-13T02:44:48.326Z,1.10
2023-01-13T02:47:23.036Z,0.80
2023-01-13T02:49:56.259Z,1.45
2023-01-13T02:52:50.821Z,1.25
2023-01-13T02:55:28.961Z,0.80
2023-01-13T02:57:58.829Z,1.00
2023-01-13T03:00:26.857Z,0.80
2023-01-13T03:02:53.611Z,1.58
2023-01-13T03:05:20.449Z,0.52
2023-01-13T03:08:18.869Z,1.15
2023-01-13T03:11:02.796Z,0.40
2023-01-13T03:13:47.092Z,0.47
2023-01-13T03:16:31.279Z,0.77
2023-01-13T03:19:16.086Z,1.20
2023-01-13T03:21:56.686Z,0.63
2023-01-13T03:24:55.285Z,1.00
2023-01-13T03:27:34.114Z,0.68
2023-01-13T03:30:08.352Z,0.57
2023-01-13T03:32:44.957Z,0.63
2023-01-13T03:35:43.611Z,0.98
2023-01-13T03:38:17.293Z,0.90
2023-01-13T03:40:55.056Z,0.50
2023-01-13T03:43:51.797Z,0.60
2023-01-13T03:46:44.049Z,1.15
2023-01-13T03:49:14.930Z,1.02
2023-01-13T03:51:49.216Z,1.27
2023-01-13T03:54:19.490Z,1.27
2023-01-13T03:56:51.614Z,0.90
2023-01-13T04:02:08.274Z,1.05
2023-01-13T04:04:40.041Z,1.45
2023-01-13T04:07:15.409Z,1.77
2023-01-13T04:09:44.861Z,1.23
2023-01-13T04:12:55.267Z,1.13
2023-01-13T04:15:25.260Z,1.30
2023-01-13T04:17:52.695Z,1.48
2023-01-13T04:20:19.545Z,0.90
2023-01-13T04:22:46.264Z,1.77
2023-01-13T04:25:12.946Z,1.55
2023-01-13T04:27:39.671Z,1.75
2023-01-13T04:30:07.295Z,1.40
2023-01-13T04:32:34.002Z,1.90
2023-01-13T04:35:00.801Z,2.08
2023-01-13T04:37:27.585Z,2.70
2023-01-13T04:39:54.284Z,2.03
2023-01-13T04:42:21.003Z,1.70
2023-01-13T04:44:47.730Z,2.22
2023-01-13T04:47:14.440Z,1.70
2023-01-13T04:49:41.150Z,1.25
2023-01-13T04:52:07.870Z,1.80
2023-01-13T04:54:34.618Z,1.58
2023-01-13T04:57:01.332Z,1.58
2023-01-13T04:59:28.022Z,1.70
2023-01-13T05:01:54.855Z,1.85
2023-01-13T05:04:21.585Z,1.90
2023-01-13T05:06:48.495Z,1.75
2023-01-13T05:09:15.732Z,1.73
2023-01-13T05:12:01.059Z,1.90
2023-01-13T05:14:46.249Z,1.50
2023-01-13T05:17:23.194Z,1.52
2023-01-13T05:19:49.929Z,2.30
2023-01-13T05:22:35.067Z,1.95
2023-01-13T05:25:20.060Z,2.35
2023-01-13T05:27:46.972Z,1.98
2023-01-13T05:30:14.245Z,1.38
2023-01-13T05:32:40.982Z,1.50
2023-01-13T05:35:08.122Z,1.65
2023-01-13T05:37:35.030Z,1.10
2023-01-13T06:04:12.394Z,1.70
2023-01-13T06:06:39.175Z,1.33
2023-01-13T06:09:05.915Z,2.03
2023-01-13T06:11:32.640Z,1.60
2023-01-13T06:13:59.363Z,1.35
2023-01-13T06:16:26.056Z,1.30
2023-01-13T06:18:54.454Z,1.80
2023-01-13T06:21:21.151Z,1.10
2023-01-13T06:23:47.859Z,2.05
2023-01-13T06:26:23.069Z,1.63
2023-01-13T06:28:50.421Z,1.63
2023-01-13T06:31:18.466Z,1.90
2023-01-13T06:33:59.739Z,1.33
2023-01-13T06:36:48.930Z,1.48
2023-01-13T06:39:20.536Z,0.80
2023-01-13T06:42:08.311Z,1.70
2023-01-13T06:44:35.095Z,1.80
2023-01-13T06:47:01.900Z,1.25
2023-01-13T06:49:28.672Z,1.60
2023-01-13T06:51:55.356Z,0.80
2023-01-13T06:54:22.046Z,1.25
2023-01-13T06:56:48.759Z,1.00
2023-01-13T06:59:15.488Z,1.40
2023-01-13T07:01:42.464Z,1.50
2023-01-13T07:04:09.279Z,1.35
2023-01-13T07:06:35.989Z,1.27
2023-01-13T07:09:03.065Z,1.20
2023-01-13T07:11:29.805Z,1.17
2023-01-13T07:14:14.843Z,1.65
2023-01-13T07:16:44.360Z,1.52
2023-01-13T07:19:11.114Z,1.42
2023-01-13T07:21:37.819Z,1.38
2023-01-13T07:24:04.851Z,1.35
2023-01-13T07:26:31.531Z,1.48
2023-01-13T07:28:58.241Z,1.15
2023-01-13T07:31:25.941Z,1.67
2023-01-13T07:33:52.645Z,1.55
2023-01-13T07:36:19.368Z,1.92
2023-01-13T07:38:46.094Z,1.42
2023-01-13T07:41:33.162Z,1.63
2023-01-13T07:44:00.448Z,2.20
2023-01-13T07:46:29.203Z,1.75
2023-01-13T07:48:55.904Z,1.13
2023-01-13T07:51:22.654Z,1.60
2023-01-13T07:53:49.885Z,1.88
2023-01-13T07:56:16.772Z,1.83
2023-01-13T07:58:44.821Z,1.83
2023-01-13T08:01:13.956Z,1.50
2023-01-13T08:03:41.157Z,1.52
2023-01-13T08:06:08.984Z,1.27
2023-01-13T08:08:36.047Z,1.35
2023-01-13T08:11:05.353Z,1.30
2023-01-13T08:13:32.148Z,1.83
2023-01-13T08:16:03.082Z,1.20
2023-01-13T08:18:33.445Z,1.60
2023-01-13T08:21:14.246Z,1.83
2023-01-13T08:23:43.766Z,2.03
2023-01-13T08:26:14.555Z,2.08
2023-01-13T08:28:41.486Z,1.90
2023-01-13T08:31:13.342Z,1.85
2023-01-13T08:33:40.445Z,1.48
2023-01-13T08:36:10.327Z,1.73
2023-01-13T08:38:37.687Z,1.70
2023-01-13T08:41:13.648Z,2.08
2023-01-13T08:43:40.713Z,1.65
2023-01-13T08:46:07.695Z,2.42
2023-01-13T08:48:34.625Z,2.03
2023-01-13T08:51:04.256Z,2.25
2023-01-13T08:53:31.271Z,2.00
2023-01-13T08:55:57.999Z,1.77
2023-01-13T08:58:25.106Z,2.35
2023-01-13T09:00:51.843Z,2.03
2023-01-13T09:03:18.597Z,2.53
2023-01-13T09:05:45.319Z,2.38
2023-01-13T09:08:12.667Z,2.20
2023-01-13T09:10:40.326Z,2.33
2023-01-13T09:13:11.752Z,2.20
2023-01-13T09:15:45.128Z,1.83
2023-01-13T09:18:12.794Z,2.13
2023-01-13T09:20:39.691Z,2.15
2023-01-13T09:23:09.865Z,2.63
2023-01-13T09:25:37.145Z,2.50
2023-01-13T09:28:08.233Z,2.28
2023-01-13T09:30:36.637Z,3.13
2023-01-13T09:33:21.681Z,2.95
2023-01-13T09:35:48.418Z,2.60
2023-01-13T09:38:15.111Z,2.30
2023-01-13T09:40:43.774Z,2.60
2023-01-13T09:43:41.789Z,2.80
2023-01-13T09:46:37.982Z,2.35
2023-01-13T09:49:05.075Z,2.53
2023-01-13T09:51:39.713Z,2.63
2023-01-13T09:54:32.050Z,2.40
2023-01-13T09:57:02.831Z,2.45
2023-01-13T09:59:36.360Z,2.53
2023-01-13T10:03:10.134Z,3.10
2023-01-13T10:05:41.298Z,2.92
2023-01-13T10:08:21.922Z,3.03
2023-01-13T10:10:55.048Z,3.00
2023-01-13T10:13:28.711Z,2.67
2023-01-13T10:16:10.460Z,2.30
2023-01-13T10:19:25.249Z,3.60
2023-01-13T10:22:15.277Z,2.60
2023-01-13T10:25:09.331Z,2.40
2023-01-13T10:27:39.226Z,2.22
2023-01-13T10:30:22.017Z,2.75
2023-01-13T10:33:00.895Z,2.60
2023-01-13T10:35:54.016Z,3.15
2023-01-13T10:38:28.297Z,2.08
2023-01-13T10:41:01.573Z,2.58
2023-01-13T10:43:30.313Z,2.60
2023-01-13T10:46:00.425Z,2.30
2023-01-13T10:48:38.762Z,3.00
2023-01-13T10:51:21.748Z,2.40
2023-01-13T10:54:17.715Z,2.90
2023-01-13T10:56:45.998Z,2.90
2023-01-13T10:59:23.925Z,2.60
2023-01-13T11:02:25.276Z,2.80
2023-01-13T11:04:56.055Z,2.83
2023-01-13T11:07:39.246Z,2.40
2023-01-13T11:10:08.590Z,2.60
2023-01-13T11:12:44.778Z,2.63
2023-01-13T11:15:21.990Z,3.03
2023-01-13T11:18:06.275Z,2.78
2023-01-13T11:20:41.202Z,2.50
2023-01-13T11:23:36.362Z,2.53
2023-01-13T11:26:15.873Z,3.33
2023-01-13T11:28:57.055Z,2.30
2023-01-13T11:31:34.405Z,3.08
2023-01-13T11:34:28.451Z,2.13
2023-01-13T11:36:59.543Z,2.78
2023-01-13T11:39:57.757Z,3.10
2023-01-13T11:42:32.143Z,3.00
2023-01-13T11:45:50.155Z,2.65
2023-01-13T11:48:21.665Z,2.63
2023-01-13T11:51:24.008Z,2.55
2023-01-13T11:54:34.594Z,3.33
2023-01-13T11:57:41.418Z,2.20
2023-01-13T12:00:32.392Z,2.53
2023-01-13T12:07:33.980Z,2.40
2023-01-13T12:10:13.219Z,2.58
2023-01-13T12:13:02.145Z,1.88
2023-01-13T12:15:49.770Z,2.40
2023-01-13T12:18:34.512Z,2.65
2023-01-13T12:21:23.909Z,2.50
2023-01-13T12:24:18.936Z,2.83
2023-01-13T12:26:55.843Z,3.67
2023-01-13T12:29:37.315Z,3.05
2023-01-13T12:32:21.784Z,2.53
2023-01-13T12:35:05.577Z,2.75
2023-01-13T12:38:08.418Z,2.75
2023-01-13T12:41:07.350Z,2.38
2023-01-13T12:43:53.599Z,2.83
2023-01-13T12:46:23.100Z,2.60
2023-01-13T12:48:56.893Z,2.78
2023-01-13T12:51:28.882Z,2.35
2023-01-13T12:53:56.495Z,2.00
2023-01-13T12:56:31.236Z,2.63
2023-01-13T12:59:16.664Z,2.15
2023-01-13T13:02:05.608Z,2.67
2023-01-13T13:04:49.479Z,3.22
2023-01-13T13:07:33.903Z,1.90
2023-01-13T13:10:24.208Z,2.05
2023-01-13T13:13:15.168Z,2.80
2023-01-13T13:15:42.175Z,1.98
2023-01-13T13:18:18.115Z,2.10
2023-01-13T13:21:11.124Z,2.33
2023-01-13T13:24:02.770Z,1.92
2023-01-13T13:26:32.694Z,2.55
2023-01-13T13:29:23.848Z,1.70
2023-01-13T13:32:17.446Z,2.08
2023-01-13T13:35:05.997Z,2.40
2023-01-13T13:38:13.639Z,3.08
2023-01-13T13:41:03.444Z,2.20
2023-01-13T13:44:00.548Z,1.73
2023-01-13T13:46:49.528Z,2.33
2023-01-13T13:49:46.678Z,1.75
2023-01-13T13:52:26.442Z,2.63
2023-01-13T13:55:02.293Z,1.98
2023-01-13T13:57:39.422Z,1.70
2023-01-13T14:00:15.508Z,2.97
2023-01-13T14:02:52.971Z,2.25
2023-01-13T14:05:28.900Z,2.47
2023-01-13T14:08:16.261Z,2.30
2023-01-13T14:10:45.639Z,1.77
2023-01-13T14:13:25.600Z,2.92
2023-01-13T14:15:59.444Z,2.53
2023-01-13T14:18:28.407Z,2.25
2023-01-13T14:21:26.813Z,2.72
2023-01-13T14:23:56.896Z,2.33
2023-01-13T14:26:30.569Z,3.13
2023-01-13T14:29:01.033Z,2.92
2023-01-13T14:31:28.899Z,2.17
2023-01-13T14:33:59.355Z,2.40
2023-01-13T14:36:32.061Z,2.70
2023-01-13T14:39:04.715Z,2.50
2023-01-13T14:41:41.499Z,2.88
2023-01-13T14:44:34.121Z,2.85
2023-01-13T14:47:27.773Z,2.10
2023-01-13T14:50:07.559Z,3.58
2023-01-13T14:52:48.311Z,2.97
2023-01-13T14:55:40.173Z,2.78
2023-01-13T14:58:21.869Z,2.15
2023-01-13T15:00:50.883Z,2.75
2023-01-13T15:03:21.514Z,2.67
2023-01-13T15:05:51.607Z,2.90
2023-01-13T15:08:29.872Z,3.08
2023-01-13T15:11:20.247Z,3.00
2023-01-13T15:13:55.768Z,3.00
2023-01-13T15:16:25.891Z,3.75
2023-01-13T15:18:54.885Z,3.05
2023-01-13T15:21:23.100Z,2.60
2023-01-13T15:23:50.086Z,2.97
2023-01-13T15:26:26.878Z,3.22
2023-01-13T15:28:56.840Z,3.08
2023-01-13T15:31:25.136Z,2.53
2023-01-13T15:33:51.977Z,2.83
2023-01-13T15:36:25.005Z,3.05
2023-01-13T15:38:51.781Z,2.67
2023-01-13T15:41:38.804Z,2.63
2023-01-13T15:44:24.332Z,2.72
2023-01-13T15:46:52.071Z,3.13
2023-01-13T15:49:26.884Z,3.95
2023-01-13T15:51:53.811Z,2.72
2023-01-13T15:54:24.309Z,2.63
2023-01-13T15:56:51.884Z,2.25
2023-01-13T15:59:26.935Z,3.55
2023-01-13T16:01:53.722Z,2.72
2023-01-13T16:04:20.524Z,3.10
2023-01-13T16:06:47.446Z,3.03
2023-01-13T16:09:15.042Z,3.08
2023-01-13T16:11:41.796Z,3.10
2023-01-13T16:14:08.522Z,2.80
2023-01-13T16:16:36.806Z,1.95
2023-01-13T16:19:03.622Z,2.30
2023-01-13T16:21:30.373Z,2.42
2023-01-13T16:23:57.110Z,2.35
2023-01-13T16:26:27.772Z,2.33
2023-01-13T16:28:57.560Z,2.30
2023-01-13T16:31:31.871Z,2.92
2023-01-13T16:34:01.120Z,2.95
2023-01-13T16:36:30.489Z,2.95
2023-01-13T16:38:57.654Z,1.83
2023-01-13T16:41:26.880Z,3.65
2023-01-13T16:43:54.169Z,2.70
2023-01-13T16:46:27.232Z,2.40
2023-01-13T16:48:57.974Z,2.55
2023-01-13T16:51:24.826Z,2.75
2023-01-13T16:53:51.889Z,2.10
2023-01-13T16:56:25.385Z,2.67
2023-01-13T16:58:55.513Z,2.40
2023-01-13T17:01:25.716Z,3.47
2023-01-13T17:03:52.897Z,2.50
2023-01-13T17:06:28.276Z,2.70
2023-01-13T17:09:00.175Z,2.67
2023-01-13T17:11:26.861Z,2.50
2023-01-13T17:13:53.570Z,2.78
2023-01-13T17:16:24.162Z,2.55
2023-01-13T17:18:50.927Z,2.47
2023-01-13T17:21:18.247Z,2.65
2023-01-13T17:23:46.619Z,2.50
2023-01-13T17:26:37.106Z,2.75
2023-01-13T17:29:08.582Z,2.22
2023-01-13T17:31:36.143Z,1.90
2023-01-13T17:34:04.213Z,2.25
2023-01-13T17:36:31.284Z,2.03
2023-01-13T17:38:58.764Z,2.25
2023-01-13T17:41:26.451Z,2.38
2023-01-13T17:43:53.872Z,2.35
2023-01-13T17:46:22.756Z,2.35
2023-01-13T17:48:51.169Z,1.73
2023-01-13T17:51:19.171Z,1.98
2023-01-13T17:53:46.535Z,2.13
2023-01-13T17:56:15.014Z,1.75
2023-01-13T17:58:41.791Z,2.22
2023-01-13T18:01:16.042Z,1.95
2023-01-13T18:03:42.814Z,1.85
2023-01-13T18:06:22.204Z,2.38
2023-01-13T18:08:50.188Z,2.75
2023-01-13T18:11:20.297Z,2.33
2023-01-13T18:13:54.669Z,2.10
2023-01-13T18:16:21.915Z,1.80
2023-01-13T18:18:52.025Z,1.52
2023-01-13T18:21:40.851Z,2.28
2023-01-13T18:24:31.853Z,2.58
2023-01-13T18:27:17.494Z,2.40
2023-01-13T18:29:44.969Z,1.90
2023-01-13T18:32:12.345Z,2.70
2023-01-13T18:34:39.549Z,2.38
2023-01-13T18:37:08.956Z,2.55
2023-01-13T18:39:39.372Z,1.85
2023-01-13T18:42:26.317Z,1.80
2023-01-13T18:44:54.034Z,1.77
2023-01-13T18:47:20.728Z,2.10
2023-01-13T18:49:47.557Z,2.67
2023-01-13T18:52:14.259Z,1.83
2023-01-13T18:54:41.091Z,1.90
2023-01-13T18:57:08.208Z,2.20
2023-01-13T18:59:34.960Z,2.15
2023-01-13T19:02:03.169Z,2.40
2023-01-13T19:04:29.979Z,2.75
2023-01-13T19:07:00.901Z,2.03
2023-01-13T19:09:29.423Z,2.42
2023-01-13T19:11:57.471Z,2.00
2023-01-13T19:14:34.407Z,2.20
2023-01-13T19:17:04.458Z,1.98
2023-01-13T19:19:31.833Z,2.65
2023-01-13T19:21:59.015Z,2.00
2023-01-13T19:24:26.008Z,2.53
2023-01-13T19:26:54.504Z,2.30
2023-01-13T19:29:21.601Z,2.83
2023-01-13T19:31:48.347Z,2.70
2023-01-13T19:34:15.544Z,2.50
2023-01-13T19:36:42.287Z,2.38
2023-01-13T19:39:10.104Z,3.45
2023-01-13T19:41:55.791Z,3.13
2023-01-13T19:44:41.016Z,2.83
2023-01-13T19:47:07.733Z,2.38
2023-01-13T19:49:34.498Z,2.42
2023-01-13T19:52:01.213Z,2.58
2023-01-13T19:54:28.010Z,3.08
2023-01-13T19:56:54.707Z,2.45
2023-01-13T19:59:28.736Z,2.97
2023-01-13T20:01:57.226Z,3.03
2023-01-13T20:04:33.556Z,3.30
2023-01-13T20:07:01.048Z,2.60
2023-01-13T20:09:30.565Z,3.22
2023-01-13T20:11:57.304Z,3.65
2023-01-13T20:14:25.508Z,2.60
2023-01-13T20:16:52.490Z,3.25
2023-01-13T20:19:19.182Z,2.80
2023-01-13T20:21:45.942Z,3.35
2023-01-13T20:24:17.436Z,3.40
2023-01-13T20:26:45.907Z,2.50
2023-01-13T20:29:13.266Z,3.38
2023-01-13T20:31:40.058Z,2.60
2023-01-13T20:34:06.793Z,3.75
2023-01-13T20:36:37.174Z,3.88
2023-01-13T20:39:06.463Z,4.07
2023-01-13T20:41:51.631Z,2.67
2023-01-13T20:44:18.330Z,3.67
2023-01-13T20:46:45.559Z,3.25
2023-01-13T20:49:14.890Z,3.38
2023-01-13T20:51:42.730Z,2.95
2023-01-13T20:54:09.484Z,2.53
2023-01-13T20:56:36.872Z,2.78
2023-01-13T20:59:04.496Z,2.20
2023-01-13T21:01:32.102Z,2.95
2023-01-13T21:04:00.186Z,3.45
2023-01-13T21:06:29.350Z,2.55
2023-01-13T21:08:56.268Z,3.22
2023-01-13T21:11:45.161Z,2.78
2023-01-13T21:14:41.150Z,3.28
2023-01-13T21:17:28.548Z,2.67
2023-01-13T21:19:55.644Z,2.83
2023-01-13T21:22:22.700Z,2.92
2023-01-13T21:24:49.413Z,2.28
2023-01-13T21:27:16.396Z,2.72
2023-01-13T21:29:44.491Z,3.05
2023-01-13T21:32:11.799Z,2.75
2023-01-13T21:34:38.693Z,2.55
2023-01-13T21:37:05.448Z,3.10
2023-01-13T21:39:32.180Z,3.55
2023-01-13T21:42:17.339Z,3.70
2023-01-13T21:45:02.478Z,2.75
2023-01-13T21:47:47.595Z,3.22
2023-01-13T21:50:18.096Z,2.70
2023-01-13T21:52:47.885Z,3.33
2023-01-13T21:55:27.861Z,2.67
2023-01-13T21:58:01.176Z,3.53
2023-01-13T22:00:30.904Z,3.80
2023-01-13T22:02:59.443Z,4.18
2023-01-13T22:05:26.799Z,2.83
2023-01-13T22:07:53.548Z,3.38
2023-01-13T22:10:24.076Z,3.25
2023-01-13T22:12:56.651Z,3.60
2023-01-13T22:15:29.060Z,3.45
2023-01-13T22:17:56.342Z,3.53
2023-01-13T22:20:23.361Z,2.80
2023-01-13T22:22:50.295Z,3.53
2023-01-13T22:25:20.001Z,3.15
2023-01-13T22:27:48.193Z,3.72
2023-01-13T22:30:21.561Z,3.33
2023-01-13T22:32:48.923Z,3.15
2023-01-13T22:35:16.262Z,3.28
2023-01-13T22:37:43.416Z,3.25
2023-01-13T22:40:12.208Z,3.67
2023-01-13T22:42:42.951Z,3.45
2023-01-13T22:45:14.482Z,3.95
2023-01-13T22:47:41.584Z,2.95
2023-01-13T22:50:09.317Z,3.83
2023-01-13T22:52:36.425Z,3.67
2023-01-13T22:55:03.655Z,3.40
2023-01-13T22:57:36.662Z,3.53
2023-01-13T23:00:10.556Z,3.75
2023-01-13T23:02:38.833Z,3.03
2023-01-13T23:05:05.957Z,3.72
2023-01-13T23:07:32.654Z,3.83
2023-01-13T23:09:59.803Z,4.25
2023-01-13T23:12:26.620Z,3.70
2023-01-13T23:14:54.423Z,4.00
2023-01-13T23:17:21.213Z,3.03
2023-01-13T23:19:47.909Z,2.97
2023-01-13T23:22:15.445Z,2.80
2023-01-13T23:24:42.235Z,3.53
2023-01-13T23:27:08.915Z,2.85
2023-01-13T23:29:35.617Z,3.08
2023-01-13T23:32:02.312Z,2.90
2023-01-13T23:34:29.047Z,3.40
2023-01-13T23:36:55.752Z,4.85
2023-01-13T23:39:22.523Z,4.72
2023-01-13T23:41:49.220Z,3.08
2023-01-13T23:44:16.287Z,4.20
2023-01-13T23:46:42.995Z,3.47
2023-01-13T23:49:09.698Z,3.75
2023-01-13T23:51:36.384Z,3.13
2023-01-13T23:54:03.197Z,3.30
2023-01-13T23:56:31.352Z,3.15
2023-01-13T23:58:58.810Z,3.33
